sensor_id;sensor_type;location;lat;lon;timestamp;pressure;altitude;pressure_sealevel;temperature;humidity
77881;BME280;67077;50.298;18.996;2023-10-08T00:01:04;97694.84;;;13.13;97.80
77881;BME280;67077;50.298;18.996;2023-10-08T00:03:53;97698.04;;;13.01;98.44
77881;BME280;67077;50.298;18.996;2023-10-08T00:06:25;97692.48;;;12.93;98.72
77881;BME280;67077;50.298;18.996;2023-10-08T00:08:56;97691.48;;;12.86;99.25
77881;BME280;67077;50.298;18.996;2023-10-08T00:11:28;97683.77;;;12.80;99.63
77881;BME280;67077;50.298;18.996;2023-10-08T00:13:58;97685.45;;;12.77;99.92
77881;BME280;67077;50.298;18.996;2023-10-08T00:16:28;97682.72;;;12.72;100.00
77881;BME280;67077;50.298;18.996;2023-10-08T00:18:56;97685.48;;;12.67;100.00
77881;BME280;67077;50.298;18.996;2023-10-08T00:21:29;97693.92;;;12.63;100.00
77881;BME280;67077;50.298;18.996;2023-10-08T00:24:02;97686.27;;;12.59;100.00
77881;BME280;67077;50.298;18.996;2023-10-08T00:26:33;97675.37;;;12.54;100.00
77881;BME280;67077;50.298;18.996;2023-10-08T00:29:04;97673.61;;;12.51;100.00
77881;BME280;67077;50.298;18.996;2023-10-08T00:31:34;97675.55;;;12.47;100.00
77881;BME280;67077;50.298;18.996;2023-10-08T00:34:06;97676.79;;;12.43;100.00
77881;BME280;67077;50.298;18.996;2023-10-08T00:36:43;97677.97;;;12.40;100.00
77881;BME280;67077;50.298;18.996;2023-10-08T00:39:12;97676.55;;;12.38;100.00
77881;BME280;67077;50.298;18.996;2023-10-08T00:42:01;97681.19;;;12.36;100.00
77881;BME280;67077;50.298;18.996;2023-10-08T00:44:36;97684.45;;;12.34;100.00
77881;BME280;67077;50.298;18.996;2023-10-08T00:47:23;97680.55;;;12.31;100.00
77881;BME280;67077;50.298;18.996;2023-10-08T00:49:54;97684.52;;;12.29;100.00
77881;BME280;67077;50.298;18.996;2023-10-08T00:52:30;97682.20;;;12.27;100.00
77881;BME280;67077;50.298;18.996;2023-10-08T00:55:08;97688.21;;;12.25;100.00
77881;BME280;67077;50.298;18.996;2023-10-08T00:57:37;97688.77;;;12.23;100.00
77881;BME280;67077;50.298;18.996;2023-10-08T01:00:11;97688.09;;;12.21;100.00
77881;BME280;67077;50.298;18.996;2023-10-08T01:02:50;97689.20;;;12.20;100.00
77881;BME280;67077;50.298;18.996;2023-10-08T01:05:28;97688.63;;;12.19;100.00
77881;BME280;67077;50.298;18.996;2023-10-08T01:08:10;97685.41;;;12.17;100.00
77881;BME280;67077;50.298;18.996;2023-10-08T01:10:40;97702.27;;;12.08;100.00
77881;BME280;67077;50.298;18.996;2023-10-08T01:13:11;97695.59;;;11.83;100.00
77881;BME280;67077;50.298;18.996;2023-10-08T01:15:45;97698.04;;;11.52;100.00
77881;BME280;67077;50.298;18.996;2023-10-08T01:18:15;97708.94;;;11.26;100.00
77881;BME280;67077;50.298;18.996;2023-10-08T01:20:45;97698.41;;;11.01;100.00
77881;BME280;67077;50.298;18.996;2023-10-08T01:23:20;97696.99;;;10.82;100.00
77881;BME280;67077;50.298;18.996;2023-10-08T01:25:49;97697.95;;;10.67;100.00
77881;BME280;67077;50.298;18.996;2023-10-08T01:28:20;97710.48;;;10.53;100.00
77881;BME280;67077;50.298;18.996;2023-10-08T01:30:56;97719.58;;;10.42;100.00
77881;BME280;67077;50.298;18.996;2023-10-08T01:33:27;97732.07;;;10.33;100.00
77881;BME280;67077;50.298;18.996;2023-10-08T01:35:56;97728.95;;;10.26;100.00
77881;BME280;67077;50.298;18.996;2023-10-08T01:38:31;97730.88;;;10.19;100.00
77881;BME280;67077;50.298;18.996;2023-10-08T01:41:02;97731.23;;;10.11;100.00
77881;BME280;67077;50.298;18.996;2023-10-08T01:43:31;97729.05;;;10.03;100.00
77881;BME280;67077;50.298;18.996;2023-10-08T01:46:02;97733.28;;;9.96;100.00
77881;BME280;67077;50.298;18.996;2023-10-08T01:48:31;97741.70;;;9.92;100.00
77881;BME280;67077;50.298;18.996;2023-10-08T01:51:05;97753.20;;;9.86;100.00
77881;BME280;67077;50.298;18.996;2023-10-08T01:53:53;97748.73;;;9.79;100.00
77881;BME280;67077;50.298;18.996;2023-10-08T01:56:21;97740.58;;;9.73;100.00
77881;BME280;67077;50.298;18.996;2023-10-08T01:58:50;97734.70;;;9.66;100.00
77881;BME280;67077;50.298;18.996;2023-10-08T02:01:21;97722.85;;;9.58;100.00
77881;BME280;67077;50.298;18.996;2023-10-08T02:03:49;97722.89;;;9.49;100.00
77881;BME280;67077;50.298;18.996;2023-10-08T02:06:17;97730.35;;;9.41;100.00
77881;BME280;67077;50.298;18.996;2023-10-08T02:08:45;97729.23;;;9.35;100.00
77881;BME280;67077;50.298;18.996;2023-10-08T02:11:15;97744.80;;;9.28;100.00
77881;BME280;67077;50.298;18.996;2023-10-08T02:13:43;97755.30;;;9.24;100.00
77881;BME280;67077;50.298;18.996;2023-10-08T02:16:18;97749.77;;;9.20;100.00
77881;BME280;67077;50.298;18.996;2023-10-08T02:18:46;97742.79;;;9.15;100.00
77881;BME280;67077;50.298;18.996;2023-10-08T02:21:14;97747.23;;;9.10;100.00
77881;BME280;67077;50.298;18.996;2023-10-08T02:23:42;97751.89;;;9.08;100.00
77881;BME280;67077;50.298;18.996;2023-10-08T02:26:11;97745.30;;;9.06;100.00
77881;BME280;67077;50.298;18.996;2023-10-08T02:28:42;97745.33;;;9.05;100.00
77881;BME280;67077;50.298;18.996;2023-10-08T02:31:10;97749.21;;;9.04;100.00
77881;BME280;67077;50.298;18.996;2023-10-08T02:33:38;97746.73;;;9.04;100.00
77881;BME280;67077;50.298;18.996;2023-10-08T02:36:06;97749.94;;;9.04;100.00
77881;BME280;67077;50.298;18.996;2023-10-08T02:38:34;97744.41;;;9.05;100.00
77881;BME280;67077;50.298;18.996;2023-10-08T02:41:05;97738.10;;;9.05;100.00
77881;BME280;67077;50.298;18.996;2023-10-08T02:43:34;97738.85;;;9.05;100.00
77881;BME280;67077;50.298;18.996;2023-10-08T02:46:04;97744.69;;;9.05;100.00
77881;BME280;67077;50.298;18.996;2023-10-08T02:48:34;97750.13;;;9.05;100.00
77881;BME280;67077;50.298;18.996;2023-10-08T02:51:02;97760.58;;;9.04;100.00
77881;BME280;67077;50.298;18.996;2023-10-08T02:53:41;97780.45;;;9.01;100.00
77881;BME280;67077;50.298;18.996;2023-10-08T02:56:14;97792.83;;;8.99;100.00
77881;BME280;67077;50.298;18.996;2023-10-08T02:58:42;97789.40;;;8.96;100.00
77881;BME280;67077;50.298;18.996;2023-10-08T03:01:15;97784.44;;;8.94;100.00
77881;BME280;67077;50.298;18.996;2023-10-08T03:03:43;97784.83;;;8.93;100.00
77881;BME280;67077;50.298;18.996;2023-10-08T03:06:11;97793.41;;;8.92;100.00
77881;BME280;67077;50.298;18.996;2023-10-08T03:08:42;97794.71;;;8.91;100.00
77881;BME280;67077;50.298;18.996;2023-10-08T03:11:10;97788.25;;;8.86;100.00
77881;BME280;67077;50.298;18.996;2023-10-08T03:13:45;97783.78;;;8.78;100.00
77881;BME280;67077;50.298;18.996;2023-10-08T03:16:20;97793.30;;;8.73;100.00
77881;BME280;67077;50.298;18.996;2023-10-08T03:18:55;97792.61;;;8.69;100.00
77881;BME280;67077;50.298;18.996;2023-10-08T03:21:24;97799.09;;;8.65;100.00
77881;BME280;67077;50.298;18.996;2023-10-08T03:24:04;97799.52;;;8.62;100.00
77881;BME280;67077;50.298;18.996;2023-10-08T03:27:01;97805.50;;;8.60;100.00
77881;BME280;67077;50.298;18.996;2023-10-08T03:29:40;97815.29;;;8.58;100.00
77881;BME280;67077;50.298;18.996;2023-10-08T03:32:12;97852.01;;;8.56;100.00
77881;BME280;67077;50.298;18.996;2023-10-08T03:34:45;97879.61;;;8.54;100.00
77881;BME280;67077;50.298;18.996;2023-10-08T03:37:15;97880.05;;;8.51;100.00
77881;BME280;67077;50.298;18.996;2023-10-08T03:39:48;97874.34;;;8.47;100.00
77881;BME280;67077;50.298;18.996;2023-10-08T03:42:24;97870.98;;;8.43;100.00
77881;BME280;67077;50.298;18.996;2023-10-08T03:44:53;97869.63;;;8.37;100.00
77881;BME280;67077;50.298;18.996;2023-10-08T03:47:23;97877.55;;;8.35;100.00
77881;BME280;67077;50.298;18.996;2023-10-08T03:49:54;97885.40;;;8.32;100.00
77881;BME280;67077;50.298;18.996;2023-10-08T03:52:22;97895.17;;;8.32;100.00
77881;BME280;67077;50.298;18.996;2023-10-08T03:54:52;97900.31;;;8.31;100.00
77881;BME280;67077;50.298;18.996;2023-10-08T03:57:40;97901.52;;;8.29;100.00
77881;BME280;67077;50.298;18.996;2023-10-08T04:00:10;97907.27;;;8.26;100.00
77881;BME280;67077;50.298;18.996;2023-10-08T04:02:45;97919.12;;;8.23;100.00
77881;BME280;67077;50.298;18.996;2023-10-08T04:05:36;97920.08;;;8.22;100.00
77881;BME280;67077;50.298;18.996;2023-10-08T04:08:36;97920.58;;;8.20;100.00
77881;BME280;67077;50.298;18.996;2023-10-08T04:11:26;97925.27;;;8.15;100.00
77881;BME280;67077;50.298;18.996;2023-10-08T04:14:00;97943.80;;;8.11;100.00
77881;BME280;67077;50.298;18.996;2023-10-08T04:16:32;97944.42;;;8.08;100.00
77881;BME280;67077;50.298;18.996;2023-10-08T04:19:04;97962.20;;;8.05;100.00
77881;BME280;67077;50.298;18.996;2023-10-08T04:21:32;97963.15;;;8.02;100.00
77881;BME280;67077;50.298;18.996;2023-10-08T04:24:01;97962.70;;;8.00;100.00
77881;BME280;67077;50.298;18.996;2023-10-08T04:26:33;97959.92;;;7.98;100.00
77881;BME280;67077;50.298;18.996;2023-10-08T04:29:02;97950.19;;;7.97;100.00
77881;BME280;67077;50.298;18.996;2023-10-08T04:31:30;97946.16;;;7.96;100.00
77881;BME280;67077;50.298;18.996;2023-10-08T04:34:11;97953.08;;;7.94;100.00
77881;BME280;67077;50.298;18.996;2023-10-08T04:36:49;97966.36;;;7.93;100.00
77881;BME280;67077;50.298;18.996;2023-10-08T04:39:28;97960.44;;;7.92;100.00
77881;BME280;67077;50.298;18.996;2023-10-08T04:42:02;97970.50;;;7.90;100.00
77881;BME280;67077;50.298;18.996;2023-10-08T04:44:38;97974.31;;;7.90;100.00
77881;BME280;67077;50.298;18.996;2023-10-08T04:47:09;97991.54;;;7.88;100.00
77881;BME280;67077;50.298;18.996;2023-10-08T04:49:37;98004.95;;;7.89;100.00
77881;BME280;67077;50.298;18.996;2023-10-08T04:52:07;98006.40;;;7.88;100.00
77881;BME280;67077;50.298;18.996;2023-10-08T04:54:47;98003.67;;;7.86;100.00
77881;BME280;67077;50.298;18.996;2023-10-08T04:57:19;98018.36;;;7.86;100.00
77881;BME280;67077;50.298;18.996;2023-10-08T04:59:50;98036.54;;;7.86;100.00
77881;BME280;67077;50.298;18.996;2023-10-08T05:02:18;98048.99;;;7.87;100.00
77881;BME280;67077;50.298;18.996;2023-10-08T05:05:01;98050.54;;;7.88;100.00
77881;BME280;67077;50.298;18.996;2023-10-08T05:07:49;98041.77;;;7.87;100.00
77881;BME280;67077;50.298;18.996;2023-10-08T05:10:17;98036.54;;;7.87;100.00
77881;BME280;67077;50.298;18.996;2023-10-08T05:12:52;98041.05;;;7.89;100.00
77881;BME280;67077;50.298;18.996;2023-10-08T05:15:43;98030.73;;;7.89;100.00
77881;BME280;67077;50.298;18.996;2023-10-08T05:18:37;98020.19;;;7.90;100.00
77881;BME280;67077;50.298;18.996;2023-10-08T05:21:24;98010.20;;;7.90;100.00
77881;BME280;67077;50.298;18.996;2023-10-08T05:24:02;98040.11;;;7.90;100.00
77881;BME280;67077;50.298;18.996;2023-10-08T05:26:38;98071.36;;;7.91;100.00
77881;BME280;67077;50.298;18.996;2023-10-08T05:29:12;98078.69;;;7.91;100.00
77881;BME280;67077;50.298;18.996;2023-10-08T05:31:58;98084.23;;;7.92;100.00
77881;BME280;67077;50.298;18.996;2023-10-08T05:34:44;98088.75;;;7.93;100.00
77881;BME280;67077;50.298;18.996;2023-10-08T05:37:32;98085.94;;;7.92;100.00
77881;BME280;67077;50.298;18.996;2023-10-08T05:40:06;98094.72;;;7.92;100.00
77881;BME280;67077;50.298;18.996;2023-10-08T05:43:01;98108.67;;;7.93;100.00
77881;BME280;67077;50.298;18.996;2023-10-08T05:45:41;98110.33;;;7.94;100.00
77881;BME280;67077;50.298;18.996;2023-10-08T05:48:20;98120.73;;;7.95;100.00
77881;BME280;67077;50.298;18.996;2023-10-08T05:50:55;98123.91;;;7.95;100.00
77881;BME280;67077;50.298;18.996;2023-10-08T05:53:40;98129.29;;;7.97;100.00
77881;BME280;67077;50.298;18.996;2023-10-08T05:56:11;98120.92;;;7.98;100.00
77881;BME280;67077;50.298;18.996;2023-10-08T05:58:56;98116.20;;;7.98;100.00
77881;BME280;67077;50.298;18.996;2023-10-08T06:01:45;98125.15;;;7.98;100.00
77881;BME280;67077;50.298;18.996;2023-10-08T06:04:14;98131.90;;;7.99;100.00
77881;BME280;67077;50.298;18.996;2023-10-08T06:07:00;98136.38;;;8.00;100.00
77881;BME280;67077;50.298;18.996;2023-10-08T06:09:44;98141.30;;;8.02;100.00
77881;BME280;67077;50.298;18.996;2023-10-08T06:12:29;98159.33;;;8.04;100.00
77881;BME280;67077;50.298;18.996;2023-10-08T06:15:12;98163.38;;;8.05;100.00
77881;BME280;67077;50.298;18.996;2023-10-08T06:17:40;98164.71;;;8.07;100.00
77881;BME280;67077;50.298;18.996;2023-10-08T06:20:35;98176.32;;;8.09;100.00
77881;BME280;67077;50.298;18.996;2023-10-08T06:23:04;98174.66;;;8.10;100.00
77881;BME280;67077;50.298;18.996;2023-10-08T06:25:34;98174.60;;;8.13;100.00
77881;BME280;67077;50.298;18.996;2023-10-08T06:28:13;98171.77;;;8.16;100.00
77881;BME280;67077;50.298;18.996;2023-10-08T06:30:43;98171.11;;;8.20;100.00
77881;BME280;67077;50.298;18.996;2023-10-08T06:33:11;98173.27;;;8.22;100.00
77881;BME280;67077;50.298;18.996;2023-10-08T06:35:39;98174.02;;;8.26;100.00
77881;BME280;67077;50.298;18.996;2023-10-08T06:38:12;98183.45;;;8.31;100.00
77881;BME280;67077;50.298;18.996;2023-10-08T06:40:42;98193.94;;;8.35;100.00
77881;BME280;67077;50.298;18.996;2023-10-08T06:43:10;98204.58;;;8.37;100.00
77881;BME280;67077;50.298;18.996;2023-10-08T06:45:58;98210.71;;;8.37;100.00
77881;BME280;67077;50.298;18.996;2023-10-08T06:48:26;98219.55;;;8.36;100.00
77881;BME280;67077;50.298;18.996;2023-10-08T06:50:56;98226.58;;;8.36;100.00
77881;BME280;67077;50.298;18.996;2023-10-08T06:53:25;98227.66;;;8.36;100.00
77881;BME280;67077;50.298;18.996;2023-10-08T06:55:53;98223.81;;;8.37;100.00
77881;BME280;67077;50.298;18.996;2023-10-08T06:58:24;98227.83;;;8.36;100.00
77881;BME280;67077;50.298;18.996;2023-10-08T07:00:52;98225.35;;;8.36;100.00
77881;BME280;67077;50.298;18.996;2023-10-08T07:03:22;98227.79;;;8.36;100.00
77881;BME280;67077;50.298;18.996;2023-10-08T07:05:52;98237.95;;;8.38;100.00
77881;BME280;67077;50.298;18.996;2023-10-08T07:08:28;98233.77;;;8.41;100.00
77881;BME280;67077;50.298;18.996;2023-10-08T07:11:00;98239.89;;;8.40;100.00
77881;BME280;67077;50.298;18.996;2023-10-08T07:13:29;98247.43;;;8.39;100.00
77881;BME280;67077;50.298;18.996;2023-10-08T07:15:57;98258.50;;;8.38;100.00
77881;BME280;67077;50.298;18.996;2023-10-08T07:18:25;98264.71;;;8.37;100.00
77881;BME280;67077;50.298;18.996;2023-10-08T07:20:54;98259.98;;;8.36;100.00
77881;BME280;67077;50.298;18.996;2023-10-08T07:23:24;98265.38;;;8.37;100.00
77881;BME280;67077;50.298;18.996;2023-10-08T07:25:58;98273.08;;;8.37;100.00
77881;BME280;67077;50.298;18.996;2023-10-08T07:28:42;98276.73;;;8.40;100.00
77881;BME280;67077;50.298;18.996;2023-10-08T07:31:14;98284.58;;;8.42;100.00
77881;BME280;67077;50.298;18.996;2023-10-08T07:33:44;98289.38;;;8.44;100.00
77881;BME280;67077;50.298;18.996;2023-10-08T07:36:11;98285.27;;;8.44;100.00
77881;BME280;67077;50.298;18.996;2023-10-08T07:38:43;98288.52;;;8.42;100.00
77881;BME280;67077;50.298;18.996;2023-10-08T07:41:11;98292.56;;;8.40;100.00
77881;BME280;67077;50.298;18.996;2023-10-08T07:43:42;98299.52;;;8.37;100.00
77881;BME280;67077;50.298;18.996;2023-10-08T07:46:10;98304.95;;;8.38;100.00
77881;BME280;67077;50.298;18.996;2023-10-08T07:48:38;98302.31;;;8.47;100.00
77881;BME280;67077;50.298;18.996;2023-10-08T07:51:14;98316.11;;;8.57;100.00
77881;BME280;67077;50.298;18.996;2023-10-08T07:53:42;98314.11;;;8.64;100.00
77881;BME280;67077;50.298;18.996;2023-10-08T07:56:09;98323.04;;;8.75;100.00
77881;BME280;67077;50.298;18.996;2023-10-08T07:58:38;98324.72;;;8.85;100.00
77881;BME280;67077;50.298;18.996;2023-10-08T08:01:07;98338.44;;;8.96;100.00
77881;BME280;67077;50.298;18.996;2023-10-08T08:03:41;98349.22;;;9.08;100.00
77881;BME280;67077;50.298;18.996;2023-10-08T08:06:09;98356.95;;;9.15;100.00
77881;BME280;67077;50.298;18.996;2023-10-08T08:08:39;98362.31;;;9.18;100.00
77881;BME280;67077;50.298;18.996;2023-10-08T08:11:07;98357.40;;;9.23;100.00
77881;BME280;67077;50.298;18.996;2023-10-08T08:13:46;98352.72;;;9.28;99.99
77881;BME280;67077;50.298;18.996;2023-10-08T08:16:14;98357.39;;;9.39;99.99
77881;BME280;67077;50.298;18.996;2023-10-08T08:18:47;98365.54;;;9.52;99.33
77881;BME280;67077;50.298;18.996;2023-10-08T08:21:18;98366.65;;;9.69;98.83
77881;BME280;67077;50.298;18.996;2023-10-08T08:23:47;98361.12;;;9.78;97.25
77881;BME280;67077;50.298;18.996;2023-10-08T08:26:23;98366.03;;;9.80;95.23
77881;BME280;67077;50.298;18.996;2023-10-08T08:31:24;98365.31;;;9.74;93.03
77881;BME280;67077;50.298;18.996;2023-10-08T08:33:59;98366.44;;;9.75;93.85
77881;BME280;67077;50.298;18.996;2023-10-08T08:36:30;98359.38;;;9.84;93.98
77881;BME280;67077;50.298;18.996;2023-10-08T08:39:01;98365.32;;;9.95;93.36
77881;BME280;67077;50.298;18.996;2023-10-08T08:41:32;98363.50;;;10.02;93.63
77881;BME280;67077;50.298;18.996;2023-10-08T08:44:04;98377.36;;;10.03;93.09
77881;BME280;67077;50.298;18.996;2023-10-08T08:46:35;98384.55;;;10.03;91.87
77881;BME280;67077;50.298;18.996;2023-10-08T08:49:07;98392.00;;;9.96;91.24
77881;BME280;67077;50.298;18.996;2023-10-08T08:51:35;98398.18;;;9.89;90.55
77881;BME280;67077;50.298;18.996;2023-10-08T08:54:04;98400.17;;;9.85;89.13
77881;BME280;67077;50.298;18.996;2023-10-08T08:56:40;98399.67;;;9.83;88.08
77881;BME280;67077;50.298;18.996;2023-10-08T08:59:11;98392.80;;;9.81;87.23
77881;BME280;67077;50.298;18.996;2023-10-08T09:01:41;98403.41;;;9.81;86.31
77881;BME280;67077;50.298;18.996;2023-10-08T09:04:09;98402.38;;;9.82;84.58
77881;BME280;67077;50.298;18.996;2023-10-08T09:06:37;98407.02;;;9.83;83.50
77881;BME280;67077;50.298;18.996;2023-10-08T09:09:05;98416.05;;;9.84;81.18
77881;BME280;67077;50.298;18.996;2023-10-08T09:11:50;98417.83;;;9.87;81.12
77881;BME280;67077;50.298;18.996;2023-10-08T09:14:24;98421.37;;;9.96;81.85
77881;BME280;67077;50.298;18.996;2023-10-08T09:16:53;98426.14;;;10.06;81.27
77881;BME280;67077;50.298;18.996;2023-10-08T09:19:24;98420.84;;;10.15;81.19
77881;BME280;67077;50.298;18.996;2023-10-08T09:22:07;98425.83;;;10.23;80.90
77881;BME280;67077;50.298;18.996;2023-10-08T09:24:37;98434.33;;;10.31;78.74
77881;BME280;67077;50.298;18.996;2023-10-08T09:27:06;98437.70;;;10.31;76.96
77881;BME280;67077;50.298;18.996;2023-10-08T09:29:35;98443.27;;;10.31;75.64
77881;BME280;67077;50.298;18.996;2023-10-08T09:32:11;98454.08;;;10.30;74.32
77881;BME280;67077;50.298;18.996;2023-10-08T09:34:42;98458.72;;;10.25;72.73
77881;BME280;67077;50.298;18.996;2023-10-08T09:37:11;98451.33;;;10.19;71.41
77881;BME280;67077;50.298;18.996;2023-10-08T09:39:41;98454.25;;;10.16;69.80
77881;BME280;67077;50.298;18.996;2023-10-08T09:42:11;98449.34;;;10.18;69.39
77881;BME280;67077;50.298;18.996;2023-10-08T09:44:40;98451.89;;;10.22;68.44
77881;BME280;67077;50.298;18.996;2023-10-08T09:47:12;98455.05;;;10.25;67.02
77881;BME280;67077;50.298;18.996;2023-10-08T09:49:56;98447.73;;;10.24;66.05
77881;BME280;67077;50.298;18.996;2023-10-08T09:52:34;98460.86;;;10.21;67.07
77881;BME280;67077;50.298;18.996;2023-10-08T09:55:08;98453.05;;;10.13;67.90
77881;BME280;67077;50.298;18.996;2023-10-08T09:57:39;98449.70;;;10.06;69.22
77881;BME280;67077;50.298;18.996;2023-10-08T10:00:08;98453.40;;;10.02;69.33
77881;BME280;67077;50.298;18.996;2023-10-08T10:02:54;98470.48;;;10.01;67.40
77881;BME280;67077;50.298;18.996;2023-10-08T10:05:23;98478.88;;;10.03;64.77
77881;BME280;67077;50.298;18.996;2023-10-08T10:07:56;98472.48;;;10.04;62.73
77881;BME280;67077;50.298;18.996;2023-10-08T10:13:06;98479.88;;;10.10;60.75
77881;BME280;67077;50.298;18.996;2023-10-08T10:15:37;98477.89;;;10.17;61.36
77881;BME280;67077;50.298;18.996;2023-10-08T10:20:45;98486.11;;;10.34;58.56
77881;BME280;67077;50.298;18.996;2023-10-08T10:23:41;98488.98;;;10.34;60.85
77881;BME280;67077;50.298;18.996;2023-10-08T10:26:40;98490.48;;;10.31;62.58
77881;BME280;67077;50.298;18.996;2023-10-08T10:31:44;98491.46;;;10.25;63.58
77881;BME280;67077;50.298;18.996;2023-10-08T10:34:16;98495.48;;;10.27;62.52
77881;BME280;67077;50.298;18.996;2023-10-08T10:36:48;98497.88;;;10.33;60.77
77881;BME280;67077;50.298;18.996;2023-10-08T10:39:18;98499.95;;;10.38;60.25
77881;BME280;67077;50.298;18.996;2023-10-08T10:42:01;98501.52;;;10.37;60.44
77881;BME280;67077;50.298;18.996;2023-10-08T10:44:33;98510.89;;;10.40;56.86
77881;BME280;67077;50.298;18.996;2023-10-08T10:47:04;98502.23;;;10.42;55.08
77881;BME280;67077;50.298;18.996;2023-10-08T10:49:47;98508.41;;;10.45;53.90
77881;BME280;67077;50.298;18.996;2023-10-08T10:52:24;98514.27;;;10.47;54.01
77881;BME280;67077;50.298;18.996;2023-10-08T10:55:04;98522.59;;;10.44;52.51
77881;BME280;67077;50.298;18.996;2023-10-08T10:57:56;98517.25;;;10.31;52.93
77881;BME280;67077;50.298;18.996;2023-10-08T11:00:31;98515.21;;;10.17;53.76
77881;BME280;67077;50.298;18.996;2023-10-08T11:03:03;98504.95;;;10.13;54.76
77881;BME280;67077;50.298;18.996;2023-10-08T11:05:33;98506.16;;;10.16;55.47
77881;BME280;67077;50.298;18.996;2023-10-08T11:08:06;98515.77;;;10.21;54.80
77881;BME280;67077;50.298;18.996;2023-10-08T11:10:37;98520.06;;;10.24;54.17
77881;BME280;67077;50.298;18.996;2023-10-08T11:13:06;98523.40;;;10.29;54.71
77881;BME280;67077;50.298;18.996;2023-10-08T11:15:43;98516.63;;;10.32;51.61
77881;BME280;67077;50.298;18.996;2023-10-08T11:18:18;98520.03;;;10.37;52.09
77881;BME280;67077;50.298;18.996;2023-10-08T11:20:48;98516.85;;;10.45;50.51
77881;BME280;67077;50.298;18.996;2023-10-08T11:23:41;98519.84;;;10.48;48.80
77881;BME280;67077;50.298;18.996;2023-10-08T11:26:09;98521.95;;;10.51;49.14
77881;BME280;67077;50.298;18.996;2023-10-08T11:28:40;98528.36;;;10.57;48.64
77881;BME280;67077;50.298;18.996;2023-10-08T11:31:12;98523.20;;;10.55;47.88
77881;BME280;67077;50.298;18.996;2023-10-08T11:33:42;98523.11;;;10.55;48.14
77881;BME280;67077;50.298;18.996;2023-10-08T11:36:10;98533.02;;;10.53;48.13
77881;BME280;67077;50.298;18.996;2023-10-08T11:38:46;98532.52;;;10.50;48.56
77881;BME280;67077;50.298;18.996;2023-10-08T11:41:17;98522.13;;;10.48;46.87
77881;BME280;67077;50.298;18.996;2023-10-08T11:43:52;98522.54;;;10.51;45.04
77881;BME280;67077;50.298;18.996;2023-10-08T11:46:30;98524.66;;;10.50;43.42
77881;BME280;67077;50.298;18.996;2023-10-08T11:49:06;98530.61;;;10.44;43.67
77881;BME280;67077;50.298;18.996;2023-10-08T11:51:35;98529.69;;;10.41;44.03
77881;BME280;67077;50.298;18.996;2023-10-08T11:54:03;98536.29;;;10.38;44.71
77881;BME280;67077;50.298;18.996;2023-10-08T11:56:34;98540.86;;;10.39;45.42
77881;BME280;67077;50.298;18.996;2023-10-08T11:59:02;98550.13;;;10.40;44.30
77881;BME280;67077;50.298;18.996;2023-10-08T12:01:33;98545.77;;;10.36;44.94
77881;BME280;67077;50.298;18.996;2023-10-08T12:04:05;98539.61;;;10.36;45.72
77881;BME280;67077;50.298;18.996;2023-10-08T12:06:40;98540.40;;;10.39;46.28
77881;BME280;67077;50.298;18.996;2023-10-08T12:09:14;98547.23;;;10.40;46.67
77881;BME280;67077;50.298;18.996;2023-10-08T12:11:42;98557.23;;;10.42;46.33
77881;BME280;67077;50.298;18.996;2023-10-08T12:14:11;98546.58;;;10.42;46.47
77881;BME280;67077;50.298;18.996;2023-10-08T12:16:39;98549.86;;;10.45;46.73
77881;BME280;67077;50.298;18.996;2023-10-08T12:19:09;98555.27;;;10.46;46.38
77881;BME280;67077;50.298;18.996;2023-10-08T12:21:47;98557.52;;;10.48;46.98
77881;BME280;67077;50.298;18.996;2023-10-08T12:24:15;98560.42;;;10.52;47.60
77881;BME280;67077;50.298;18.996;2023-10-08T12:26:45;98553.77;;;10.57;48.13
77881;BME280;67077;50.298;18.996;2023-10-08T12:29:14;98557.11;;;10.62;47.98
77881;BME280;67077;50.298;18.996;2023-10-08T12:31:42;98558.46;;;10.70;48.49
77881;BME280;67077;50.298;18.996;2023-10-08T12:34:15;98578.77;;;10.72;45.46
77881;BME280;67077;50.298;18.996;2023-10-08T12:36:44;98579.02;;;10.65;43.03
77881;BME280;67077;50.298;18.996;2023-10-08T12:39:13;98572.79;;;10.58;44.06
77881;BME280;67077;50.298;18.996;2023-10-08T12:41:44;98582.91;;;10.53;44.64
77881;BME280;67077;50.298;18.996;2023-10-08T12:44:12;98574.98;;;10.48;44.49
77881;BME280;67077;50.298;18.996;2023-10-08T12:46:43;98570.73;;;10.42;44.32
77881;BME280;67077;50.298;18.996;2023-10-08T12:49:12;98570.16;;;10.41;44.43
77881;BME280;67077;50.298;18.996;2023-10-08T12:51:40;98564.73;;;10.41;45.03
77881;BME280;67077;50.298;18.996;2023-10-08T12:54:09;98570.11;;;10.44;45.33
77881;BME280;67077;50.298;18.996;2023-10-08T12:56:41;98571.48;;;10.47;44.60
77881;BME280;67077;50.298;18.996;2023-10-08T12:59:13;98579.96;;;10.50;45.11
77881;BME280;67077;50.298;18.996;2023-10-08T13:01:51;98586.75;;;10.56;45.46
77881;BME280;67077;50.298;18.996;2023-10-08T13:04:22;98587.21;;;10.56;44.06
77881;BME280;67077;50.298;18.996;2023-10-08T13:06:57;98579.88;;;10.52;44.22
77881;BME280;67077;50.298;18.996;2023-10-08T13:09:29;98583.83;;;10.51;44.17
77881;BME280;67077;50.298;18.996;2023-10-08T13:12:04;98583.38;;;10.48;43.46
77881;BME280;67077;50.298;18.996;2023-10-08T13:14:32;98582.05;;;10.48;44.16
77881;BME280;67077;50.298;18.996;2023-10-08T13:17:02;98583.58;;;10.50;44.70
77881;BME280;67077;50.298;18.996;2023-10-08T13:19:30;98591.73;;;10.51;44.75
77881;BME280;67077;50.298;18.996;2023-10-08T13:22:01;98584.04;;;10.52;45.01
77881;BME280;67077;50.298;18.996;2023-10-08T13:24:34;98581.16;;;10.53;45.39
77881;BME280;67077;50.298;18.996;2023-10-08T13:27:03;98583.55;;;10.59;46.63
77881;BME280;67077;50.298;18.996;2023-10-08T13:29:34;98586.25;;;10.67;46.58
77881;BME280;67077;50.298;18.996;2023-10-08T13:32:02;98597.23;;;10.70;43.68